ウィニペグ の空港の天気 - METARとTAF

ウィニペグ国際空港 ( CYWG / YWG ) - カナダ マニトバ州ウィニペグ
飛行場実況気象(Metar)
観測時間10/21 10:00 CDT (10/21 15:00 UTC)
風向・風速北西 4m/s
視程10km以上
天気現象
全天の4割程度の雲 雲底高度 240m
全天の8割程度の雲 雲底高度 300m
全天を覆う雲 雲底高度 3660m
気温-2℃
湿度100%
気圧1018.3hPa
METARCYWG 211500Z 31007KT 8SM SCT008 BKN010 OVC120 M02/M02 A3003 RMK SF3SC4AC1 SLP183
過去の天気等 Google飛行場航空写真 Wunderground天気予報

過去48時間のMETAR

飛行場予報(TAF)
発表時間: 10/21 08:23 CDT (10/21 13:23 UTC)
予報対象時間: 21日8時 CDT ~ 22日7時 CDT
風向・風速北北西 3m/s
視程4830m
天気現象弱い雪 もや
全天の4割程度の雲 雲底高度 150m
全天の8割程度の雲 雲底高度 370m
全天を覆う雲 雲底高度 1520m
21日8時 CDT ~ 21日11時 CDT に一時的に
視程10km以上
天気現象弱い雪
全天の4割程度の雲 雲底高度 370m
全天を覆う雲 雲底高度 1520m
21日8時 CDT から 確率 30% で
視程6440m
天気現象弱い氷霧雨 もや
全天の8割程度の雲 雲底高度 150m
全天を覆う雲 雲底高度 370m
21日11時 CDT から
風向・風速西 5m/s
視程10km以上
全天の4割程度の雲 雲底高度 240m
全天の8割程度の雲 雲底高度 610m
21日23時 CDT から
風向・風速西南西 3m/s
視程10km以上
全天の4割程度の雲 雲底高度 610m
TAF AMD CYWG 211323Z 2113/2212 33005KT 3SM -SN BR SCT005 BKN012 OVC050
TEMPO 2113/2116 P6SM -SN SCT012 OVC050
PROB30 2113/2116 4SM -FZDZ BR BKN005 OVC012
FM211600 28010KT P6SM SCT008 BKN020
FM220400 24006KT P6SM SCT020 RMK NXT FCST BY 211800Z